PILOTS ONLINE: 127    ATC ONLINE: 20

PABI

Allen Army Airfield

Location

IATA BIG
City Delta Junction Ft Greely
Country  United States
Latitude 63° 59' 40" N
Longitude 145° 43' 19" W
Elevation 1291 ft
Type Medium Airport

Map

Weather

METAR
2014/10/23 04:53
PABI 230453Z 28008KT 8SM -SN SCT008 BKN038 OVC060 M04/M06 A2964 RMK AO2 SNE0359B47 SLP067 LAST P0000 T10441061
TAF
2014/10/23 00:54
TAF PABI 2300/2404 VRB06KT 9999 FEW001 SCT007 BKN015 600156 QNH2955INS 
      BECMG 2314/2315 VRB06KT 8000 BR BKN004 OVC010 600047 QNH2966INS 
      BECMG 2319/2320 VRB06KT 9999 NSW OVC012 600126 QNH2977INS TXM02/2300Z TNM09/2315Z 
      AMD 230035

Runways

01/19 9000 ft / 150 ft
07/25 4679 ft / 164 ft
10/28 6115 ft / 150 ft

Outbound flights

Callsign Flying to Pilot ATD/STD ETA Aircraft

Inbound flights

Callsign Flying from Pilot ATD ETA Aircraft